< < Back
Terminal Aerodrome Forecast


Current Version              Previous Versions:   1  2  3  4  5  6  7  8  9  

Terminal Aerodrome Forecast

148
FTUS42 KJAX 010524
TAFGNV
TAF
KGNV 010524Z 0106/0206 02007KT 3SM -RA BR OVC003
     FM011000 03005KT 2SM -DZ BR OVC002
     FM011800 09005KT 4SM BR OVC007
     FM012100 11005KT P6SM BKN025=

Latest METAR

302
SAUS70 KWBC 011200 RRL
MTRGNV
METAR KGNV 011153Z AUTO 02006KT 10SM OVC003 11/11 A3039 RMK AO2 SLP291
60009 70022 T01110106 10111 20106 53007


USA.gov is the U.S. government's official web portal to all federal, state and local government web resources and services.